Time;durP1;ratioP1;P1;durP2;ratioP2;P2;SDS_P1;SDS_P2;PMS_P1;PMS_P2;Temp;Humidity;BMP_temperature;BMP_pressure;BME280_temperature;BME280_humidity;BME280_pressure;Samples;Min_cycle;Max_cycle;Signal;HPM_P1;HPM_P2
2022/01/06 00:00:13;;;;;;;3.45;1.00;;;6.50;85.30;;;;;;4925927;29;20035;-66
2022/01/06 00:02:39;;;;;;;2.65;0.70;;;6.50;85.00;;;;;;4923887;29;20032;-67
2022/01/06 00:05:06;;;;;;;2.55;0.77;;;6.40;85.70;;;;;;4924869;29;20086;-67
2022/01/06 00:07:32;;;;;;;1.33;0.57;;;6.40;85.70;;;;;;4923950;29;20036;-67
2022/01/06 00:09:59;;;;;;;7.78;0.90;;;6.30;86.10;;;;;;4923484;29;20082;-67
2022/01/06 00:12:34;;;;;;;3.00;0.80;;;6.20;86.60;;;;;;4923268;29;20046;-67
2022/01/06 00:18:08;;;;;;;3.13;1.23;;;6.00;87.30;;;;;;4919469;29;20035;-67
2022/01/06 00:23:29;;;;;;;3.40;0.88;;;6.00;88.00;;;;;;4918264;29;20500;-67
2022/01/06 00:25:57;;;;;;;4.20;0.90;;;5.90;87.70;;;;;;4912247;29;20115;-67
2022/01/06 00:28:23;;;;;;;3.05;0.90;;;5.90;87.90;;;;;;4921474;29;20082;-67
2022/01/06 00:30:49;;;;;;;4.68;1.10;;;5.90;88.20;;;;;;4909492;29;20119;-67
2022/01/06 00:33:16;;;;;;;6.07;1.02;;;5.80;88.40;;;;;;4922939;29;20043;-67
2022/01/06 00:35:42;;;;;;;5.10;0.98;;;5.80;88.70;;;;;;4938348;28;20042;-67
2022/01/06 00:38:09;;;;;;;4.97;0.90;;;5.90;87.90;;;;;;4927005;23;20538;-87
2022/01/06 00:43:30;;;;;;;3.33;1.00;;;5.80;88.60;;;;;;4934044;29;20027;-89
2022/01/06 04:36:35;;;;;;;2.60;0.50;;;2.10;84.60;;;;;;4929976;29;20131;-92
2022/01/06 04:39:01;;;;;;;4.35;0.63;;;2.10;85.60;;;;;;4843364;29;20058;-65
2022/01/06 04:41:26;;;;;;;3.15;0.47;;;2.00;85.00;;;;;;4853375;29;20037;-65
2022/01/06 04:43:52;;;;;;;3.88;0.52;;;2.00;84.80;;;;;;4862544;29;20240;-65
2022/01/06 04:46:19;;;;;;;1.85;0.50;;;2.00;85.00;;;;;;4860437;29;20038;-65
2022/01/06 04:48:45;;;;;;;6.22;1.48;;;2.00;85.40;;;;;;4847451;29;20049;-65
2022/01/06 04:51:10;;;;;;;1.98;0.40;;;2.00;85.60;;;;;;4846327;29;20063;-65
2022/01/06 04:53:36;;;;;;;0.80;0.30;;;1.90;86.20;;;;;;4859189;29;20056;-65
2022/01/06 04:56:02;;;;;;;2.30;0.82;;;1.90;86.10;;;;;;4846158;29;20529;-65
2022/01/06 04:58:28;;;;;;;0.55;0.32;;;1.90;86.30;;;;;;4845637;29;20597;-65
2022/01/06 05:00:54;;;;;;;2.40;0.40;;;1.80;85.90;;;;;;4845795;29;20069;-66
2022/01/06 05:03:20;;;;;;;2.58;0.35;;;1.80;86.20;;;;;;4849017;29;20148;-65
2022/01/06 05:05:45;;;;;;;1.38;0.30;;;1.80;86.30;;;;;;4846081;29;20069;-65
2022/01/06 05:08:11;;;;;;;0.47;0.22;;;1.70;86.50;;;;;;4848048;29;20044;-65
2022/01/06 05:10:37;;;;;;;1.13;0.40;;;1.70;86.80;;;;;;4846229;29;20053;-65
2022/01/06 05:13:03;;;;;;;2.97;0.47;;;1.70;87.00;;;;;;4845246;29;20129;-65
2022/01/06 05:15:28;;;;;;;1.23;0.40;;;1.70;87.30;;;;;;4845516;29;20037;-65
2022/01/06 05:17:54;;;;;;;1.55;0.30;;;1.70;87.60;;;;;;4847527;29;20045;-65
2022/01/06 05:20:25;;;;;;;2.35;0.30;;;1.60;88.00;;;;;;4846239;29;20085;-64
2022/01/06 05:22:54;;;;;;;0.70;0.43;;;1.50;89.10;;;;;;4847588;29;20125;-65
2022/01/06 05:25:24;;;;;;;0.52;0.40;;;1.60;89.90;;;;;;4850038;29;20052;-65
2022/01/06 05:27:50;;;;;;;1.65;0.60;;;1.50;90.00;;;;;;4844999;29;20128;-65
2022/01/06 05:30:16;;;;;;;2.17;0.50;;;1.50;90.40;;;;;;4864585;29;20557;-64
2022/01/06 05:32:42;;;;;;;1.45;0.60;;;1.50;90.40;;;;;;4833047;29;20045;-65
2022/01/06 05:35:08;;;;;;;1.50;0.55;;;1.50;90.50;;;;;;4849248;29;20041;-65
2022/01/06 05:37:34;;;;;;;3.00;0.50;;;1.50;90.30;;;;;;4849356;29;20041;-65
2022/01/06 05:39:59;;;;;;;2.85;0.68;;;1.60;90.20;;;;;;4849976;29;20030;-66
2022/01/06 05:42:25;;;;;;;2.53;1.30;;;1.60;89.80;;;;;;4864612;29;20037;-65
2022/01/06 05:44:51;;;;;;;3.70;0.63;;;1.60;89.50;;;;;;4849825;29;20180;-64
2022/01/06 05:47:17;;;;;;;2.03;0.80;;;1.70;89.50;;;;;;4849639;29;20110;-65
2022/01/06 05:49:43;;;;;;;1.60;0.80;;;1.80;89.70;;;;;;4847786;29;20846;-64
2022/01/06 05:52:09;;;;;;;2.78;0.90;;;1.80;89.20;;;;;;4849993;29;20037;-65
2022/01/06 05:54:34;;;;;;;0.93;0.32;;;1.80;89.40;;;;;;4849177;29;20063;-64
2022/01/06 05:57:00;;;;;;;6.45;1.10;;;1.80;89.50;;;;;;4849290;29;20875;-64
2022/01/06 05:59:28;;;;;;;1.98;0.43;;;1.80;89.40;;;;;;4848754;29;20034;-65
2022/01/06 06:01:54;;;;;;;1.50;0.50;;;1.90;89.80;;;;;;4849190;29;20045;-65
2022/01/06 06:04:20;;;;;;;2.25;0.73;;;1.90;89.90;;;;;;4850473;29;20037;-65
2022/01/06 06:06:46;;;;;;;3.97;0.73;;;1.90;89.70;;;;;;4864575;29;20037;-65
2022/01/06 06:09:12;;;;;;;4.60;0.88;;;1.90;89.00;;;;;;4849713;29;20037;-65
2022/01/06 06:11:38;;;;;;;3.97;0.80;;;1.90;88.90;;;;;;4849296;29;20494;-66
2022/01/06 06:14:03;;;;;;;3.17;0.68;;;1.90;89.50;;;;;;4848641;29;20033;-64
2022/01/06 06:16:29;;;;;;;3.25;0.80;;;1.90;90.00;;;;;;4860136;29;20564;-64
2022/01/06 06:18:55;;;;;;;5.90;0.93;;;1.90;90.00;;;;;;4848965;29;20418;-65
2022/01/06 06:21:21;;;;;;;3.85;0.73;;;1.90;90.00;;;;;;4849125;29;20041;-65
2022/01/06 06:23:47;;;;;;;2.38;0.50;;;1.90;90.00;;;;;;4851906;29;20081;-65
2022/01/06 06:26:13;;;;;;;2.95;0.90;;;1.90;90.00;;;;;;4853472;29;20576;-65
2022/01/06 06:28:38;;;;;;;1.42;0.57;;;1.90;89.80;;;;;;4848945;29;20033;-66
2022/01/06 06:31:04;;;;;;;4.15;0.70;;;1.80;89.80;;;;;;4849902;29;20070;-65
2022/01/06 06:33:30;;;;;;;2.78;0.82;;;1.80;90.00;;;;;;4862869;29;20045;-64
2022/01/06 06:35:56;;;;;;;4.80;1.40;;;1.80;90.30;;;;;;4850185;29;20033;-65
2022/01/06 06:38:22;;;;;;;1.88;0.68;;;1.80;89.70;;;;;;4862806;29;20067;-65
2022/01/06 06:40:47;;;;;;;2.15;0.73;;;1.90;89.50;;;;;;4849786;29;20112;-65
2022/01/06 06:43:14;;;;;;;1.60;0.80;;;1.90;89.70;;;;;;4849449;29;20124;-65
2022/01/06 06:45:40;;;;;;;3.33;1.10;;;1.90;90.10;;;;;;4851929;29;20181;-65
2022/01/06 06:48:06;;;;;;;4.28;1.15;;;1.80;90.20;;;;;;4853019;29;20026;-65
2022/01/06 06:50:32;;;;;;;2.25;0.90;;;1.90;90.30;;;;;;4853677;29;20097;-65
2022/01/06 06:52:58;;;;;;;3.25;0.90;;;1.90;90.30;;;;;;4854768;29;20041;-65
2022/01/06 06:55:24;;;;;;;3.92;1.52;;;1.90;90.10;;;;;;4854386;29;20043;-65
2022/01/06 06:57:49;;;;;;;1.30;0.63;;;1.90;90.00;;;;;;4848909;29;20037;-65
2022/01/06 07:00:16;;;;;;;6.95;0.95;;;1.90;90.10;;;;;;4864781;29;20753;-65
2022/01/06 07:02:41;;;;;;;3.13;1.00;;;1.90;90.20;;;;;;4850945;29;20049;-66
2022/01/06 07:05:08;;;;;;;2.53;0.80;;;1.90;90.10;;;;;;4852227;29;20560;-66
2022/01/06 07:07:33;;;;;;;4.72;1.30;;;1.90;90.10;;;;;;4851080;29;20041;-66
2022/01/06 07:09:59;;;;;;;7.20;1.17;;;1.90;90.20;;;;;;4848166;29;20041;-66
2022/01/06 07:12:25;;;;;;;5.95;0.95;;;1.90;90.20;;;;;;4850944;29;21022;-66
2022/01/06 07:14:51;;;;;;;3.25;1.13;;;1.90;90.50;;;;;;4846942;29;20060;-66
2022/01/06 07:17:16;;;;;;;7.38;1.10;;;1.90;90.30;;;;;;4850669;29;20041;-65
2022/01/06 07:19:42;;;;;;;4.65;0.95;;;1.90;90.50;;;;;;4851202;29;20097;-66
2022/01/06 07:22:08;;;;;;;4.38;0.70;;;1.90;90.50;;;;;;4847317;29;20097;-65
2022/01/06 07:24:34;;;;;;;3.30;0.85;;;2.00;90.20;;;;;;4848542;29;20041;-64
2022/01/06 07:27:00;;;;;;;2.17;0.70;;;2.00;90.50;;;;;;4849435;29;20052;-64
2022/01/06 07:29:27;;;;;;;6.15;0.90;;;2.00;90.20;;;;;;4852682;29;20044;-65
2022/01/06 07:31:53;;;;;;;2.15;0.60;;;2.00;90.20;;;;;;4848277;29;20045;-65
2022/01/06 07:34:19;;;;;;;3.38;0.75;;;2.00;90.20;;;;;;4851973;29;20116;-65
2022/01/06 07:36:45;;;;;;;6.45;0.80;;;2.00;90.20;;;;;;4847216;29;20088;-65
2022/01/06 07:39:11;;;;;;;6.03;1.08;;;2.00;89.90;;;;;;4866283;29;20467;-65
2022/01/06 07:41:37;;;;;;;5.82;1.00;;;2.10;89.80;;;;;;4848796;29;20850;-65
2022/01/06 07:44:07;;;;;;;3.33;0.90;;;2.10;90.10;;;;;;4853585;29;20390;-65
2022/01/06 07:46:36;;;;;;;2.53;0.77;;;2.10;90.00;;;;;;4851158;29;20056;-64
2022/01/06 07:49:03;;;;;;;5.28;1.10;;;2.10;90.00;;;;;;4848396;29;20048;-65
2022/01/06 07:51:31;;;;;;;4.38;1.40;;;2.20;90.00;;;;;;4846382;29;20034;-64
2022/01/06 07:54:00;;;;;;;2.45;0.80;;;2.20;90.00;;;;;;4848128;29;20056;-65
2022/01/06 07:56:26;;;;;;;8.63;1.40;;;2.20;90.00;;;;;;4852814;29;20030;-64
2022/01/06 07:58:52;;;;;;;1.65;0.77;;;2.20;90.00;;;;;;4849712;29;20044;-64
2022/01/06 08:01:18;;;;;;;6.25;1.10;;;2.30;90.10;;;;;;4851506;29;20217;-64
2022/01/06 08:03:44;;;;;;;2.25;1.10;;;2.30;89.70;;;;;;4846689;29;20034;-64
2022/01/06 08:06:11;;;;;;;6.13;1.25;;;2.30;89.60;;;;;;4846103;29;20148;-65
2022/01/06 08:08:36;;;;;;;4.78;1.17;;;2.40;89.30;;;;;;4849209;29;20543;-64
2022/01/06 08:11:03;;;;;;;9.13;1.23;;;2.40;90.00;;;;;;4848361;29;20033;-65
2022/01/06 08:13:28;;;;;;;3.22;1.20;;;2.50;89.00;;;;;;4860038;29;20052;-65
2022/01/06 08:15:54;;;;;;;3.90;1.10;;;2.60;88.50;;;;;;4850789;29;20042;-65
2022/01/06 08:18:20;;;;;;;2.42;0.98;;;2.60;89.10;;;;;;4843379;29;20041;-64
2022/01/06 08:20:46;;;;;;;3.65;0.70;;;2.60;88.50;;;;;;4860260;29;20101;-65
2022/01/06 08:23:12;;;;;;;4.35;0.93;;;2.60;88.00;;;;;;4848424;29;20029;-65
2022/01/06 08:25:38;;;;;;;4.07;1.20;;;2.60;87.40;;;;;;4850864;29;20409;-65
2022/01/06 08:28:04;;;;;;;4.32;1.00;;;2.70;88.40;;;;;;4849468;29;20037;-66
2022/01/06 08:30:30;;;;;;;1.67;0.85;;;2.90;88.30;;;;;;4836589;29;20964;-65
2022/01/06 08:32:56;;;;;;;4.22;1.00;;;3.30;87.10;;;;;;4846379;29;20765;-68
2022/01/06 08:35:23;;;;;;;3.17;1.08;;;4.00;84.40;;;;;;4846460;29;20041;-65
2022/01/06 08:37:49;;;;;;;5.00;1.10;;;4.50;81.30;;;;;;4847347;29;20094;-66
2022/01/06 08:40:15;;;;;;;1.75;0.95;;;4.80;79.20;;;;;;4848579;29;20040;-66
2022/01/06 08:42:41;;;;;;;3.22;0.93;;;4.70;78.30;;;;;;4862311;29;20108;-66
2022/01/06 08:45:08;;;;;;;1.50;0.77;;;4.70;79.10;;;;;;4847599;29;20086;-66
2022/01/06 08:47:34;;;;;;;2.72;1.15;;;4.60;79.10;;;;;;4847157;29;20041;-67
2022/01/06 08:50:00;;;;;;;1.70;0.80;;;4.60;79.50;;;;;;4852852;29;20080;-64
2022/01/06 08:52:27;;;;;;;1.95;0.82;;;4.60;80.00;;;;;;4847637;29;20059;-67
2022/01/06 08:54:53;;;;;;;5.35;0.90;;;4.50;79.80;;;;;;4847419;29;20425;-66
2022/01/06 08:57:19;;;;;;;2.78;0.88;;;4.50;79.40;;;;;;4854069;29;20029;-66
2022/01/06 08:59:45;;;;;;;3.08;0.80;;;4.50;79.40;;;;;;4851445;29;20076;-66
2022/01/06 09:02:11;;;;;;;1.85;0.85;;;4.50;80.60;;;;;;4850654;29;20041;-68
2022/01/06 09:04:37;;;;;;;5.65;1.33;;;4.50;80.20;;;;;;4847693;29;20129;-67
2022/01/06 09:07:03;;;;;;;7.07;1.30;;;4.50;79.90;;;;;;4849888;29;20134;-65
2022/01/06 09:09:29;;;;;;;3.35;0.80;;;4.60;80.10;;;;;;4841961;29;20451;-67
2022/01/06 09:11:55;;;;;;;8.00;1.35;;;4.60;79.60;;;;;;4861308;29;20152;-68
2022/01/06 09:14:22;;;;;;;4.55;1.33;;;4.90;78.50;;;;;;4863598;29;20573;-68
2022/01/06 09:16:49;;;;;;;6.43;1.17;;;5.20;77.70;;;;;;4848050;29;20048;-67
2022/01/06 09:19:15;;;;;;;4.57;1.70;;;5.70;76.10;;;;;;4846947;29;20045;-67
2022/01/06 09:21:41;;;;;;;5.15;1.48;;;6.40;74.00;;;;;;4864171;29;20338;-67
2022/01/06 09:24:07;;;;;;;7.22;1.65;;;7.20;71.60;;;;;;4857779;29;20159;-67
2022/01/06 09:26:34;;;;;;;6.00;1.10;;;8.10;67.00;;;;;;4844566;29;20144;-67
2022/01/06 09:29:05;;;;;;;3.50;1.08;;;9.10;62.40;;;;;;4852508;29;20053;-66
2022/01/06 09:31:33;;;;;;;3.60;0.90;;;10.00;59.80;;;;;;4855643;29;20042;-66
2022/01/06 09:33:59;;;;;;;1.95;0.90;;;10.80;56.00;;;;;;4848838;29;20038;-66
2022/01/06 09:36:27;;;;;;;4.90;1.30;;;11.50;54.90;;;;;;4846777;29;20044;-66
2022/01/06 09:38:57;;;;;;;3.28;1.13;;;12.00;52.60;;;;;;4848668;29;20033;-66
2022/01/06 09:41:24;;;;;;;1.73;0.80;;;12.30;50.80;;;;;;4848877;29;20030;-67
2022/01/06 09:43:54;;;;;;;2.20;1.10;;;12.60;50.10;;;;;;4845072;29;20041;-66
2022/01/06 09:46:21;;;;;;;3.55;0.90;;;13.10;49.20;;;;;;4858045;29;20106;-68
2022/01/06 09:48:47;;;;;;;3.05;0.80;;;13.10;48.50;;;;;;4850979;29;20029;-67
2022/01/06 09:51:14;;;;;;;5.72;1.17;;;13.30;47.50;;;;;;4844811;29;20033;-65
2022/01/06 09:53:40;;;;;;;4.95;1.08;;;13.60;47.70;;;;;;4845830;29;20051;-66
2022/01/06 09:56:06;;;;;;;3.03;0.70;;;13.70;47.00;;;;;;4862152;29;20049;-66
2022/01/06 09:58:32;;;;;;;4.90;1.05;;;13.60;46.90;;;;;;4845252;29;20529;-68
2022/01/06 10:00:58;;;;;;;2.28;1.00;;;13.60;47.30;;;;;;4845900;29;20033;-66
2022/01/06 10:03:45;;;;;;;4.93;1.30;;;13.60;46.60;;;;;;4847021;29;20038;-66
2022/01/06 10:06:21;;;;;;;3.13;0.98;;;13.80;46.60;;;;;;4843125;29;20109;-66
2022/01/06 10:09:05;;;;;;;1.92;0.70;;;14.00;46.10;;;;;;4844726;29;20394;-68
2022/01/06 10:11:33;;;;;;;2.20;0.90;;;14.00;46.70;;;;;;4856881;29;20070;-67
2022/01/06 10:14:10;;;;;;;3.05;1.10;;;14.10;45.30;;;;;;4847129;29;20061;-67
2022/01/06 10:16:39;;;;;;;3.47;1.05;;;14.30;44.80;;;;;;4860919;29;20045;-68
2022/01/06 10:19:10;;;;;;;4.57;1.33;;;14.20;45.40;;;;;;4858330;29;20086;-65
2022/01/06 10:21:47;;;;;;;4.97;1.13;;;13.90;45.60;;;;;;4850376;29;20037;-67
2022/01/06 10:24:20;;;;;;;4.00;2.00;;;14.00;46.00;;;;;;4861597;29;20569;-64
2022/01/06 10:27:16;;;;;;;4.88;1.80;;;14.40;44.90;;;;;;4846326;29;20052;-65
2022/01/06 10:29:47;;;;;;;6.75;2.35;;;14.50;44.00;;;;;;4839217;29;20052;-66
2022/01/06 10:32:15;;;;;;;5.13;2.45;;;14.40;44.50;;;;;;4849063;29;20041;-64
2022/01/06 10:34:55;;;;;;;3.97;1.50;;;14.20;44.20;;;;;;4850402;29;20125;-65
2022/01/06 10:37:22;;;;;;;5.07;2.17;;;13.90;45.30;;;;;;4850894;29;20058;-66
2022/01/06 10:39:51;;;;;;;5.72;1.65;;;13.60;46.10;;;;;;4853041;29;20113;-66
2022/01/06 10:42:17;;;;;;;4.72;1.13;;;13.10;46.60;;;;;;4850882;29;20105;-64
2022/01/06 10:44:46;;;;;;;2.63;1.23;;;12.60;47.60;;;;;;4851208;29;20059;-64
2022/01/06 10:47:12;;;;;;;4.68;1.40;;;11.90;49.50;;;;;;4852989;29;20034;-67
2022/01/06 10:49:38;;;;;;;3.05;1.10;;;11.10;50.70;;;;;;4852469;29;20050;-66
2022/01/06 10:52:03;;;;;;;3.13;1.10;;;10.40;52.80;;;;;;4850009;29;20037;-66
2022/01/06 10:54:29;;;;;;;4.13;1.60;;;9.80;55.30;;;;;;4849032;29;20072;-67
2022/01/06 10:57:09;;;;;;;4.80;1.92;;;9.40;57.20;;;;;;4851502;29;20029;-66
2022/01/06 10:59:35;;;;;;;2.13;1.20;;;9.10;58.20;;;;;;4846060;29;20106;-67
2022/01/06 11:02:03;;;;;;;1.58;0.82;;;8.90;59.30;;;;;;4847734;29;20129;-67
2022/01/06 11:04:29;;;;;;;2.60;1.20;;;8.80;58.90;;;;;;4851914;29;20040;-67
2022/01/06 11:06:58;;;;;;;1.88;0.63;;;8.70;59.40;;;;;;4849761;29;20113;-66
2022/01/06 11:09:26;;;;;;;2.45;0.95;;;8.60;59.30;;;;;;4845614;29;20033;-68
2022/01/06 11:14:27;;;;;;;2.30;0.80;;;8.60;58.60;;;;;;4849867;29;20485;-67
2022/01/06 11:16:53;;;;;;;4.50;0.70;;;8.80;58.60;;;;;;4848805;29;20037;-66
2022/01/06 11:19:22;;;;;;;2.05;0.80;;;9.20;58.20;;;;;;4847886;29;20034;-67
2022/01/06 11:21:49;;;;;;;4.82;0.50;;;9.60;56.40;;;;;;4852495;29;20871;-66
2022/01/06 11:24:17;;;;;;;2.63;0.70;;;9.60;55.30;;;;;;4852003;29;20049;-67
2022/01/06 11:27:08;;;;;;;2.38;0.70;;;9.30;55.90;;;;;;4851449;29;20483;-67
2022/01/06 11:29:42;;;;;;;2.80;0.68;;;8.90;55.80;;;;;;4863606;29;20041;-66
2022/01/06 11:32:23;;;;;;;4.30;0.98;;;8.50;57.50;;;;;;4864002;29;20089;-67
2022/01/06 11:35:15;;;;;;;5.22;0.77;;;8.20;57.40;;;;;;4847902;29;20033;-67
2022/01/06 11:37:44;;;;;;;1.83;0.80;;;8.00;58.70;;;;;;4864501;29;20049;-67
2022/01/06 11:40:12;;;;;;;4.50;0.60;;;7.70;60.00;;;;;;4847108;29;20140;-67
2022/01/06 11:42:38;;;;;;;3.88;0.98;;;7.60;60.20;;;;;;4853325;29;20097;-67
2022/01/06 11:45:05;;;;;;;5.68;0.98;;;7.50;61.20;;;;;;4853039;29;20513;-67
2022/01/06 11:47:39;;;;;;;2.70;0.57;;;7.50;61.80;;;;;;4850536;29;20624;-67
2022/01/06 11:50:12;;;;;;;2.40;0.77;;;7.50;59.90;;;;;;4848301;29;20064;-66
2022/01/06 11:52:52;;;;;;;3.05;0.68;;;7.50;60.60;;;;;;4847037;29;20077;-67
2022/01/06 11:55:19;;;;;;;3.10;0.70;;;7.40;60.80;;;;;;4846280;29;20073;-67
2022/01/06 11:57:45;;;;;;;2.97;0.68;;;7.40;60.60;;;;;;4844761;29;20065;-68
2022/01/06 12:00:22;;;;;;;1.00;0.30;;;7.40;59.70;;;;;;4849717;29;20033;-67
2022/01/06 12:03:04;;;;;;;1.38;0.50;;;7.40;60.30;;;;;;4848542;29;20034;-67
2022/01/06 12:05:53;;;;;;;1.48;0.60;;;7.40;59.30;;;;;;4846551;29;20041;-67
2022/01/06 12:08:21;;;;;;;2.35;0.77;;;7.30;60.00;;;;;;4848264;29;20147;-67
2022/01/06 12:10:49;;;;;;;1.30;0.60;;;7.30;60.80;;;;;;4854205;29;20037;-67
2022/01/06 12:13:15;;;;;;;1.75;0.47;;;7.30;60.60;;;;;;4850741;29;20565;-68
2022/01/06 12:15:54;;;;;;;2.08;1.45;;;7.30;60.30;;;;;;4849606;29;20036;-66
2022/01/06 12:18:26;;;;;;;3.05;1.10;;;7.30;60.60;;;;;;4851153;29;20055;-67
2022/01/06 12:20:54;;;;;;;7.90;2.33;;;7.20;60.90;;;;;;4864016;29;20044;-66
2022/01/06 12:23:21;;;;;;;4.85;0.80;;;7.30;59.80;;;;;;4865382;29;20438;-67
2022/01/06 12:26:03;;;;;;;4.75;1.48;;;7.20;59.40;;;;;;4871166;29;20037;-67
2022/01/06 12:28:30;;;;;;;2.20;0.73;;;7.20;60.50;;;;;;4849136;29;20048;-68
2022/01/06 12:31:00;;;;;;;7.35;3.28;;;7.10;59.60;;;;;;4848913;29;20095;-66
2022/01/06 12:33:26;;;;;;;8.25;2.85;;;7.00;60.20;;;;;;4850248;29;20128;-66
2022/01/06 12:35:54;;;;;;;5.63;1.17;;;7.00;61.20;;;;;;4843983;29;20414;-67
2022/01/06 12:38:30;;;;;;;2.50;0.75;;;7.00;60.30;;;;;;4847904;29;20033;-67
2022/01/06 12:40:56;;;;;;;4.43;1.08;;;6.90;60.60;;;;;;4861626;29;20410;-67
2022/01/06 12:43:29;;;;;;;3.55;1.70;;;6.90;59.90;;;;;;4846743;29;20060;-66
2022/01/06 12:46:12;;;;;;;2.17;0.90;;;6.80;61.00;;;;;;4845904;29;20122;-66
2022/01/06 12:48:48;;;;;;;1.45;0.80;;;6.90;61.40;;;;;;4848213;29;20116;-67
2022/01/06 12:51:20;;;;;;;3.22;1.15;;;6.80;61.50;;;;;;4849100;29;20668;-66
2022/01/06 12:53:49;;;;;;;3.42;0.70;;;6.80;61.90;;;;;;4843960;29;20033;-66
2022/01/06 12:56:30;;;;;;;2.55;1.10;;;6.70;62.30;;;;;;4853342;29;20165;-67
2022/01/06 12:59:05;;;;;;;2.58;0.60;;;6.70;62.30;;;;;;4866098;29;20142;-66
2022/01/06 13:01:31;;;;;;;4.55;2.50;;;6.70;63.00;;;;;;4850133;29;20055;-67
2022/01/06 13:03:57;;;;;;;6.90;3.35;;;6.70;62.90;;;;;;4848597;29;20062;-66
2022/01/06 13:06:27;;;;;;;2.95;1.45;;;6.70;63.20;;;;;;4848006;29;20041;-67
2022/01/06 13:08:58;;;;;;;2.45;1.10;;;6.70;63.30;;;;;;4850311;29;20184;-64
2022/01/06 13:11:26;;;;;;;2.05;0.90;;;6.70;63.20;;;;;;4848189;29;20084;-66
2022/01/06 13:13:57;;;;;;;5.40;1.40;;;6.70;64.60;;;;;;4847890;29;20046;-66
2022/01/06 13:16:32;;;;;;;3.90;1.45;;;6.70;64.50;;;;;;4847442;29;20152;-66
2022/01/06 13:19:03;;;;;;;6.47;2.70;;;6.70;64.10;;;;;;4850714;29;20586;-66
2022/01/06 13:21:30;;;;;;;6.03;1.00;;;6.70;64.40;;;;;;4848753;29;20525;-66
2022/01/06 13:24:09;;;;;;;2.28;0.50;;;6.70;64.10;;;;;;4848802;29;20714;-67
2022/01/06 13:26:46;;;;;;;1.48;0.57;;;6.70;63.70;;;;;;4846893;29;20049;-67
2022/01/06 13:29:22;;;;;;;0.68;0.65;;;6.60;64.90;;;;;;4859779;29;20125;-66
2022/01/06 13:31:57;;;;;;;3.55;0.60;;;6.60;65.00;;;;;;4845510;29;20170;-66
2022/01/06 13:34:23;;;;;;;1.95;0.75;;;6.60;65.40;;;;;;4845941;29;20083;-67
2022/01/06 13:36:49;;;;;;;8.43;1.40;;;6.50;65.20;;;;;;4849907;29;20120;-66
2022/01/06 13:39:14;;;;;;;3.05;1.25;;;6.50;65.70;;;;;;4845298;29;20136;-70
2022/01/06 13:41:44;;;;;;;1.00;0.70;;;6.50;65.00;;;;;;4849754;29;20775;-68
2022/01/06 13:44:11;;;;;;;3.25;0.77;;;6.50;66.00;;;;;;4846891;29;20049;-70
2022/01/06 13:46:51;;;;;;;2.63;0.90;;;6.50;66.00;;;;;;4853541;29;20048;-66
2022/01/06 13:52:15;;;;;;;6.18;2.60;;;6.40;66.00;;;;;;4848361;29;20040;-72
2022/01/06 13:54:41;;;;;;;6.10;2.20;;;6.30;66.60;;;;;;4863730;29;20045;-71
2022/01/06 13:57:11;;;;;;;11.10;1.90;;;6.30;66.60;;;;;;4850427;29;20120;-70
2022/01/06 13:59:40;;;;;;;1.92;1.10;;;6.30;67.20;;;;;;4852472;29;20034;-69
2022/01/06 14:02:07;;;;;;;4.20;0.98;;;6.20;66.50;;;;;;4851176;29;20113;-71
2022/01/06 14:04:37;;;;;;;2.72;0.90;;;6.20;67.30;;;;;;4853665;29;20052;-68
2022/01/06 14:07:03;;;;;;;2.38;0.93;;;6.10;67.00;;;;;;4862637;29;20041;-70
2022/01/06 14:09:29;;;;;;;3.15;0.70;;;6.10;67.80;;;;;;4851297;29;20041;-71
2022/01/06 14:11:54;;;;;;;2.50;0.80;;;6.00;68.60;;;;;;4849635;29;20772;-70
2022/01/06 14:14:20;;;;;;;3.03;1.15;;;6.00;68.80;;;;;;4849815;29;20561;-71
2022/01/06 14:16:46;;;;;;;3.58;1.48;;;6.00;69.60;;;;;;4862226;29;20136;-71
2022/01/06 14:19:12;;;;;;;4.00;2.65;;;6.00;69.10;;;;;;4850404;29;20032;-71
2022/01/06 14:21:37;;;;;;;5.10;2.97;;;5.90;68.80;;;;;;4850093;29;20581;-65
2022/01/06 14:24:03;;;;;;;4.65;1.63;;;5.90;68.80;;;;;;4851606;29;20061;-71
2022/01/06 14:26:29;;;;;;;2.13;1.17;;;5.80;68.90;;;;;;4850287;29;20203;-71
2022/01/06 14:28:56;;;;;;;2.15;0.93;;;5.80;69.60;;;;;;4850068;29;20659;-71
2022/01/06 14:31:22;;;;;;;2.85;1.02;;;5.70;69.40;;;;;;4853923;29;20089;-70
2022/01/06 14:33:48;;;;;;;2.05;0.98;;;5.70;70.50;;;;;;4854803;29;20469;-71
2022/01/06 14:36:13;;;;;;;2.95;0.80;;;5.60;70.40;;;;;;4844164;29;20050;-70
2022/01/06 14:38:41;;;;;;;6.32;0.90;;;5.50;70.30;;;;;;4853082;29;20805;-70
2022/01/06 14:41:12;;;;;;;5.18;1.00;;;5.50;71.10;;;;;;4868456;29;20033;-68
2022/01/06 14:43:39;;;;;;;3.85;0.77;;;5.40;71.30;;;;;;4847845;29;20064;-70
2022/01/06 14:46:05;;;;;;;1.20;0.60;;;5.40;71.40;;;;;;4850298;29;20117;-69
2022/01/06 14:48:32;;;;;;;2.88;0.70;;;5.30;71.80;;;;;;4848088;29;20037;-69
2022/01/06 14:50:58;;;;;;;1.65;0.70;;;5.20;72.40;;;;;;4847848;29;20038;-71
2022/01/06 14:53:24;;;;;;;3.30;0.60;;;5.10;72.50;;;;;;4849264;29;20092;-70
2022/01/06 14:55:49;;;;;;;2.13;0.65;;;5.10;72.80;;;;;;4854070;29;20057;-67
2022/01/06 14:58:15;;;;;;;4.22;0.65;;;5.00;73.20;;;;;;4847309;29;20065;-69
2022/01/06 15:00:41;;;;;;;3.28;0.60;;;4.90;73.30;;;;;;4851100;29;20025;-70
2022/01/06 15:03:07;;;;;;;1.20;0.50;;;4.90;73.60;;;;;;4845824;29;20479;-70
2022/01/06 15:05:32;;;;;;;2.50;0.47;;;4.80;74.00;;;;;;4850717;29;20041;-70
2022/01/06 15:07:59;;;;;;;1.45;0.70;;;4.70;74.10;;;;;;4846431;29;20041;-72
2022/01/06 15:10:26;;;;;;;3.00;0.50;;;4.60;74.70;;;;;;4851061;29;20871;-69
2022/01/06 15:12:53;;;;;;;4.25;0.55;;;4.50;75.50;;;;;;4850444;29;20047;-68
2022/01/06 15:15:20;;;;;;;3.45;0.70;;;4.40;76.20;;;;;;4846893;29;20080;-69
2022/01/06 15:17:46;;;;;;;5.07;0.60;;;4.30;76.70;;;;;;4846773;29;20034;-68
2022/01/06 15:20:12;;;;;;;4.03;0.90;;;4.20;76.90;;;;;;4849144;29;20073;-68
2022/01/06 15:22:39;;;;;;;1.95;1.00;;;4.20;76.90;;;;;;4851960;29;20174;-68
2022/01/06 15:25:05;;;;;;;2.92;1.23;;;4.10;77.10;;;;;;4846700;29;20057;-68
2022/01/06 15:27:32;;;;;;;18.27;6.40;;;3.90;77.20;;;;;;4847776;29;20517;-69
2022/01/06 15:29:58;;;;;;;26.42;8.38;;;3.90;77.60;;;;;;4847205;29;20038;-67
2022/01/06 15:32:24;;;;;;;10.93;5.35;;;3.80;78.00;;;;;;4849022;29;20851;-67
2022/01/06 15:34:51;;;;;;;6.25;2.50;;;3.80;78.30;;;;;;4862603;29;20035;-67
2022/01/06 15:37:17;;;;;;;4.72;2.08;;;3.70;78.50;;;;;;4848239;29;20069;-67
2022/01/06 15:39:43;;;;;;;5.28;2.08;;;3.60;78.20;;;;;;4855047;29;20036;-67
2022/01/06 15:42:09;;;;;;;12.07;3.78;;;3.50;78.70;;;;;;4847207;29;20112;-67
2022/01/06 15:44:35;;;;;;;5.35;2.83;;;3.50;78.90;;;;;;4846044;29;20051;-66
2022/01/06 15:47:01;;;;;;;8.05;2.90;;;3.50;79.40;;;;;;4847967;29;20037;-65
2022/01/06 15:49:26;;;;;;;7.63;3.35;;;3.40;78.80;;;;;;4851731;29;20042;-67
2022/01/06 15:51:53;;;;;;;6.57;3.25;;;3.40;79.10;;;;;;4849421;29;20041;-66
2022/01/06 15:54:19;;;;;;;20.20;7.18;;;3.30;79.50;;;;;;4859382;29;20037;-66
2022/01/06 15:56:46;;;;;;;29.27;12.30;;;3.30;80.30;;;;;;4852923;29;20033;-68
2022/01/06 15:59:18;;;;;;;57.85;22.67;;;3.30;80.60;;;;;;4868149;29;20037;-68
2022/01/06 16:07:12;;;;;;;16.90;8.52;;;3.20;81.80;;;;;;4849591;29;20040;-66
2022/01/06 16:09:38;;;;;;;18.15;8.88;;;3.10;82.30;;;;;;4847613;29;20079;-66
2022/01/06 16:12:05;;;;;;;16.02;8.60;;;3.10;82.50;;;;;;4845439;29;20076;-66
2022/01/06 16:14:31;;;;;;;21.77;10.98;;;3.10;82.70;;;;;;4859275;29;20044;-67
2022/01/06 16:16:57;;;;;;;22.67;11.23;;;3.00;82.80;;;;;;4846830;29;20025;-66
2022/01/06 16:19:23;;;;;;;13.40;9.30;;;3.00;82.70;;;;;;4849694;29;20066;-67
2022/01/06 16:21:50;;;;;;;14.07;6.68;;;3.00;82.70;;;;;;4864226;29;20037;-67
2022/01/06 16:24:16;;;;;;;7.03;3.00;;;3.00;83.00;;;;;;4847637;29;20043;-67
2022/01/06 16:26:42;;;;;;;12.75;3.92;;;2.90;83.30;;;;;;4861902;29;20030;-66
2022/01/06 16:29:09;;;;;;;7.93;3.65;;;2.90;83.50;;;;;;4846344;29;20077;-67
2022/01/06 16:32:02;;;;;;;5.70;2.80;;;2.90;83.70;;;;;;4849307;29;20726;-66
2022/01/06 16:34:28;;;;;;;8.45;4.35;;;2.90;84.20;;;;;;4852861;29;20517;-67
2022/01/06 16:36:54;;;;;;;10.63;4.47;;;2.80;84.60;;;;;;4850003;29;20042;-67
2022/01/06 16:39:20;;;;;;;8.38;4.75;;;2.80;84.60;;;;;;4850624;29;20116;-65
2022/01/06 16:41:45;;;;;;;8.02;5.05;;;2.70;84.20;;;;;;4852671;29;20045;-67
2022/01/06 16:44:14;;;;;;;6.60;3.67;;;2.70;84.50;;;;;;4853806;29;20049;-67
2022/01/06 16:46:41;;;;;;;5.43;2.58;;;2.70;84.80;;;;;;4847888;29;20705;-68
2022/01/06 16:49:07;;;;;;;5.53;2.40;;;2.70;84.90;;;;;;4844997;29;20117;-65
2022/01/06 16:51:33;;;;;;;4.80;2.28;;;2.60;85.10;;;;;;4844648;29;20726;-66
2022/01/06 16:53:58;;;;;;;5.85;2.33;;;2.70;85.40;;;;;;4844570;29;20065;-65
2022/01/06 16:56:24;;;;;;;6.03;2.75;;;2.60;85.30;;;;;;4844565;29;20037;-65
2022/01/06 16:58:50;;;;;;;9.90;3.42;;;2.60;85.40;;;;;;4849238;29;20036;-66
2022/01/06 17:01:16;;;;;;;7.05;2.13;;;2.60;85.50;;;;;;4845796;29;20069;-68
2022/01/06 17:03:41;;;;;;;5.82;2.45;;;2.60;85.60;;;;;;4847899;29;20033;-68
2022/01/06 17:06:08;;;;;;;6.63;2.22;;;2.60;85.60;;;;;;4846405;29;20092;-69
2022/01/06 17:08:33;;;;;;;6.85;2.58;;;2.60;85.70;;;;;;4846219;29;20565;-68